• vieta
  • image
  • image
  • image
mod_vvisit_countermod_vvisit_countermod_vvisit_countermod_vvisit_countermod_vvisit_countermod_vvisit_counter
mod_vvisit_counterŠiandien382
mod_vvisit_counterVakar558
mod_vvisit_counterŠią savaitę3717
mod_vvisit_counterPraėjusią savaitę3730
mod_vvisit_counterŠį mėnesį14510
mod_vvisit_counterPraėjusį mėnesį19965
mod_vvisit_counterViso908324

Mes turime: 3 svečius, 1 bots online
Jūsų IP: 54.224.91.58
 , 
Šiandien: Geg 26, 2018
Oro uostas

AP V2 LT

 

Čia galite pamatyti trumpą filmuką apie įmonės Šiaulių oro uostas teikiamas paslaugas

Šiandien

Sekmadienis, 27 Gegužė 2018

Orų prognozė aviacijai

[source: ADDS]
METAR
EYSA 262050Z 07006KT CAVOK 17/13 Q1026 BLU NOSIG =
TAF
SR / SS: 02:01 / 18:48 UTC (EYSA 2018-05-27)

Paieška

Lankytojai

Mes turime 4 svečius online

tic logo lt